createdAt,value
2024-03-02T09:01:38.344Z,50.00
2024-03-02T09:02:15.767Z,50.00
2024-03-02T09:03:15.741Z,50.00
2024-03-02T09:04:15.758Z,50.00
2024-03-02T09:05:15.760Z,50.00
2024-03-02T09:06:15.826Z,50.00
2024-03-02T09:07:15.775Z,33.47
2024-03-02T09:08:15.774Z,12.05
2024-03-02T09:09:15.760Z,0.00
2024-03-02T09:10:15.764Z,0.00
2024-03-02T09:11:15.779Z,0.00
2024-03-02T09:12:15.754Z,0.00
2024-03-02T09:13:15.757Z,0.00
2024-03-02T09:14:15.783Z,0.00
2024-03-02T09:15:15.769Z,4.46
2024-03-02T09:16:15.864Z,13.22
2024-03-02T09:17:15.812Z,22.75
2024-03-02T09:18:15.803Z,34.67
2024-03-02T09:19:15.816Z,45.32
2024-03-02T09:20:15.793Z,50.70
2024-03-02T09:21:15.854Z,50.27
2024-03-02T09:22:15.870Z,50.00
2024-03-02T09:23:15.899Z,50.00
2024-03-02T09:24:17.731Z,51.84
2024-03-02T09:25:15.938Z,50.09
2024-03-02T09:26:15.948Z,50.00
2024-03-02T09:27:15.970Z,50.00
2024-03-02T09:28:15.929Z,50.50
2024-03-02T09:29:15.953Z,50.00
2024-03-02T09:30:23.274Z,50.00
2024-03-02T09:31:23.267Z,50.00
2024-03-02T09:32:23.242Z,50.00
2024-03-02T09:33:23.326Z,50.00
2024-03-02T09:34:23.278Z,50.00
2024-03-02T09:35:23.259Z,51.83
2024-03-02T09:36:23.355Z,49.70
2024-03-02T09:37:23.268Z,50.59
2024-03-02T09:38:23.294Z,50.00
2024-03-02T09:39:23.344Z,50.00
2024-03-02T09:40:23.264Z,51.21
2024-03-02T09:41:23.286Z,51.57
2024-03-02T09:42:24.750Z,50.00
2024-03-02T09:43:23.267Z,50.52
2024-03-02T09:44:23.277Z,52.15
2024-03-02T09:45:23.329Z,51.06
2024-03-02T09:46:23.270Z,50.42
2024-03-02T09:47:23.285Z,51.48
2024-03-02T09:48:23.313Z,50.33
2024-03-02T09:49:23.265Z,52.47
2024-03-02T09:50:23.317Z,50.31
2024-03-02T09:51:23.314Z,53.04
2024-03-02T09:52:23.270Z,50.64
2024-03-02T09:53:23.298Z,52.46
2024-03-02T09:54:23.754Z,52.04
2024-03-02T09:55:23.315Z,52.06
2024-03-02T09:56:23.308Z,53.75
2024-03-02T09:57:23.297Z,50.37
2024-03-02T09:58:23.305Z,50.61
2024-03-02T09:59:23.315Z,51.46
2024-03-02T10:00:23.306Z,50.00
2024-03-02T10:01:23.403Z,49.83
2024-03-02T10:02:23.389Z,51.28
2024-03-02T10:03:23.300Z,51.26
2024-03-02T10:04:23.304Z,50.00
2024-03-02T10:05:23.295Z,50.22
2024-03-02T10:06:23.355Z,52.35
2024-03-02T10:07:23.293Z,52.96
2024-03-02T10:08:23.299Z,54.04
2024-03-02T10:09:23.318Z,50.57
2024-03-02T10:10:24.238Z,51.39
2024-03-02T10:11:23.361Z,51.99
2024-03-02T10:12:23.354Z,50.19
2024-03-02T10:13:23.305Z,50.04
2024-03-02T10:14:23.314Z,52.11
2024-03-02T10:15:23.345Z,50.85
2024-03-02T10:16:23.305Z,50.53
2024-03-02T10:17:23.319Z,52.03
2024-03-02T10:18:23.336Z,51.06
2024-03-02T10:19:23.309Z,51.59
2024-03-02T10:20:23.321Z,52.24
2024-03-02T10:21:23.354Z,50.45
2024-03-02T10:22:23.326Z,50.58
2024-03-02T10:23:23.353Z,51.99
2024-03-02T10:24:23.324Z,50.72
2024-03-02T10:25:36.585Z,52.30
2024-03-02T10:26:24.344Z,51.13
2024-03-02T10:27:23.390Z,52.45
2024-03-02T10:28:23.387Z,49.32
2024-03-02T10:29:23.354Z,51.57
2024-03-02T10:30:23.360Z,52.46
2024-03-02T10:31:23.352Z,50.28
2024-03-02T10:32:23.363Z,50.97
2024-03-02T10:33:23.395Z,50.56
2024-03-02T10:34:23.356Z,54.03
2024-03-02T10:35:23.473Z,50.63
2024-03-02T10:36:23.372Z,51.45
2024-03-02T10:37:23.368Z,50.00
2024-03-02T10:38:23.369Z,52.84
2024-03-02T10:39:23.381Z,51.61
2024-03-02T10:40:23.371Z,52.47
2024-03-02T10:41:23.401Z,50.59
2024-03-02T10:42:23.373Z,53.48
2024-03-02T10:43:23.371Z,52.39
2024-03-02T10:44:23.388Z,52.93
2024-03-02T10:45:23.382Z,51.64
2024-03-02T10:46:23.382Z,52.47
2024-03-02T10:47:23.390Z,52.92
2024-03-02T10:48:23.387Z,50.61
2024-03-02T10:49:23.346Z,51.32
2024-03-02T10:50:23.353Z,52.81
2024-03-02T10:51:23.394Z,53.00
2024-03-02T10:52:23.368Z,50.98
2024-03-02T10:53:23.389Z,51.88
2024-03-02T10:54:23.391Z,51.63
2024-03-02T10:55:23.599Z,51.27
2024-03-02T10:56:23.382Z,53.20
2024-03-02T10:57:23.370Z,53.07
2024-03-02T10:58:23.442Z,52.64
2024-03-02T10:59:23.372Z,52.00
2024-03-02T11:00:23.383Z,51.51
2024-03-02T11:01:23.496Z,50.82
2024-03-02T11:02:23.363Z,53.44
2024-03-02T11:03:23.392Z,52.64
2024-03-02T11:04:23.456Z,51.01
2024-03-02T11:05:23.359Z,53.49
2024-03-02T11:06:23.360Z,53.26
2024-03-02T11:07:23.408Z,52.85
2024-03-02T11:08:23.402Z,53.32
2024-03-02T11:09:23.413Z,54.54
2024-03-02T11:10:23.416Z,53.88
2024-03-02T11:11:23.450Z,53.44
2024-03-02T11:12:23.462Z,51.87
2024-03-02T11:13:23.435Z,52.38
2024-03-02T11:14:23.412Z,51.72
2024-03-02T11:15:23.537Z,52.94
2024-03-02T11:16:23.490Z,52.80
2024-03-02T11:17:23.521Z,53.29
2024-03-02T11:18:23.632Z,54.53
2024-03-02T11:19:23.633Z,53.23
2024-03-02T11:20:23.588Z,53.52
2024-03-02T11:21:23.658Z,54.17
2024-03-02T11:22:23.671Z,53.62
2024-03-02T11:23:23.701Z,53.49
2024-03-02T11:24:23.841Z,53.93
2024-03-02T11:25:23.919Z,52.93
2024-03-02T11:26:23.856Z,54.17
2024-03-02T11:27:23.938Z,52.70
2024-03-02T11:28:24.006Z,52.13
2024-03-02T11:29:24.056Z,54.17
2024-03-02T11:30:24.218Z,54.48
2024-03-02T11:31:24.186Z,54.68
2024-03-02T11:32:24.239Z,54.68
2024-03-02T11:33:24.406Z,54.79
2024-03-02T11:34:24.398Z,54.23
2024-03-02T11:35:24.495Z,54.38
2024-03-02T11:36:24.563Z,54.64
2024-03-02T11:37:24.586Z,53.58
2024-03-02T11:38:24.698Z,56.94
2024-03-02T11:39:24.750Z,54.57
2024-03-02T11:40:24.814Z,54.56
2024-03-02T11:41:24.861Z,56.52
2024-03-02T11:42:24.906Z,57.83
2024-03-02T11:43:24.976Z,55.18
2024-03-02T11:44:25.038Z,54.93
2024-03-02T11:45:25.139Z,57.85
2024-03-02T11:46:25.140Z,57.41
2024-03-02T11:47:25.238Z,55.51
2024-03-02T11:48:25.285Z,53.62
2024-03-02T11:49:25.322Z,54.46
2024-03-02T11:50:25.457Z,56.42
2024-03-02T11:51:25.435Z,55.17
2024-03-02T11:52:25.455Z,54.33
2024-03-02T11:53:25.518Z,54.08
2024-03-02T11:54:25.572Z,54.73
2024-03-02T11:55:25.578Z,54.02
2024-03-02T11:56:25.620Z,55.64
2024-03-02T11:57:25.770Z,55.35
2024-03-02T11:58:25.728Z,56.21
2024-03-02T11:59:25.752Z,56.22
2024-03-02T12:00:25.886Z,53.85
2024-03-02T12:01:25.968Z,51.42
2024-03-02T12:02:25.885Z,52.60
2024-03-02T12:03:25.936Z,52.58
2024-03-02T12:04:25.928Z,53.00
2024-03-02T12:05:25.931Z,51.37
2024-03-02T12:06:26.016Z,55.05
2024-03-02T12:07:25.987Z,50.35
2024-03-02T12:08:26.018Z,53.12
2024-03-02T12:09:26.089Z,52.76
2024-03-02T12:10:26.141Z,54.44
2024-03-02T12:11:26.070Z,52.89
2024-03-02T12:12:26.106Z,54.79
2024-03-02T12:13:26.079Z,53.23
2024-03-02T12:14:26.129Z,51.66
2024-03-02T12:15:26.111Z,53.45
2024-03-02T12:16:26.130Z,51.98
2024-03-02T12:17:26.135Z,53.11
2024-03-02T12:18:26.196Z,54.09
2024-03-02T12:19:26.116Z,53.66
2024-03-02T12:20:26.149Z,53.61
2024-03-02T12:21:26.186Z,54.36
2024-03-02T12:22:26.201Z,54.20
2024-03-02T12:23:26.254Z,53.99
2024-03-02T12:24:26.268Z,52.36
2024-03-02T12:25:26.320Z,53.96
2024-03-02T12:26:26.350Z,53.92
2024-03-02T12:27:26.401Z,54.29
2024-03-02T12:28:26.455Z,53.45
2024-03-02T12:29:26.489Z,53.57
2024-03-02T12:30:26.582Z,54.15
2024-03-02T12:31:26.621Z,54.01
2024-03-02T12:32:26.691Z,51.80
2024-03-02T12:33:26.779Z,56.15
2024-03-02T12:34:26.956Z,55.08
2024-03-02T12:35:26.929Z,53.39
2024-03-02T12:36:27.039Z,54.88
2024-03-02T12:37:27.024Z,54.74
2024-03-02T12:38:27.082Z,54.01
2024-03-02T12:39:27.204Z,54.23
2024-03-02T12:40:27.180Z,53.64
2024-03-02T12:41:29.452Z,55.66
2024-03-02T12:42:27.297Z,54.59
2024-03-02T12:43:27.353Z,55.46
2024-03-02T12:44:27.443Z,54.00
2024-03-02T12:45:27.530Z,55.34
2024-03-02T12:46:27.509Z,54.57
2024-03-02T12:47:27.576Z,53.82
2024-03-02T12:48:27.648Z,52.74
2024-03-02T12:49:27.629Z,54.22
2024-03-02T12:50:27.751Z,54.72
2024-03-02T12:51:27.751Z,53.70
2024-03-02T12:52:27.777Z,53.79
2024-03-02T12:53:27.797Z,56.13
2024-03-02T12:54:27.848Z,55.28
2024-03-02T12:55:27.868Z,54.50
2024-03-02T12:56:27.914Z,55.38
2024-03-02T12:57:27.935Z,55.36
2024-03-02T12:58:28.004Z,56.07
2024-03-02T12:59:28.152Z,55.51
2024-03-02T13:00:28.080Z,55.75
2024-03-02T13:01:28.135Z,55.60
2024-03-02T13:02:28.033Z,55.42
2024-03-02T13:03:28.052Z,53.62
2024-03-02T13:04:28.078Z,55.08
2024-03-02T13:05:28.084Z,54.71
2024-03-02T13:06:28.140Z,55.04
2024-03-02T13:07:28.118Z,56.84
2024-03-02T13:08:28.115Z,56.45
2024-03-02T13:09:28.124Z,54.66
2024-03-02T13:10:28.229Z,57.49
2024-03-02T13:11:28.179Z,54.70
2024-03-02T13:12:28.166Z,54.83
2024-03-02T13:13:28.139Z,54.02
2024-03-02T13:14:28.153Z,53.07
2024-03-02T13:15:28.282Z,55.14
2024-03-02T13:16:32.821Z,53.62
2024-03-02T13:17:32.644Z,53.67
2024-03-02T13:18:29.293Z,53.79
2024-03-02T13:19:28.242Z,54.09
2024-03-02T13:20:28.274Z,54.71
2024-03-02T13:21:28.281Z,55.07
2024-03-02T13:22:28.204Z,57.09
2024-03-02T13:23:28.232Z,55.02
2024-03-02T13:24:28.221Z,56.00
2024-03-02T13:25:30.112Z,54.11
2024-03-02T13:26:28.243Z,54.20
2024-03-02T13:27:28.300Z,54.69
2024-03-02T13:28:28.303Z,54.93
2024-03-02T13:29:28.337Z,56.12
2024-03-02T13:30:28.444Z,57.54
2024-03-02T13:31:28.422Z,55.94
2024-03-02T13:32:28.530Z,55.32
2024-03-02T13:33:28.572Z,58.43
2024-03-02T13:34:28.575Z,52.27
2024-03-02T13:35:28.637Z,55.27
2024-03-02T13:36:28.718Z,55.20
2024-03-02T13:37:28.759Z,55.81
2024-03-02T13:38:28.823Z,55.07
2024-03-02T13:39:28.917Z,55.47
2024-03-02T13:40:28.985Z,55.07
2024-03-02T13:41:29.022Z,56.88
2024-03-02T13:43:29.171Z,57.40
2024-03-02T13:44:29.250Z,55.76
2024-03-02T13:45:29.318Z,53.74
2024-03-02T13:46:29.402Z,56.12
2024-03-02T13:47:29.440Z,55.57
2024-03-02T13:48:29.555Z,54.22
2024-03-02T13:49:29.577Z,55.04
2024-03-02T13:50:29.713Z,55.57
2024-03-02T13:51:29.767Z,54.14
2024-03-02T13:52:29.786Z,55.85
2024-03-02T13:53:29.884Z,55.98
2024-03-02T13:54:29.952Z,55.45
2024-03-02T13:55:30.022Z,58.00
2024-03-02T13:56:30.061Z,57.03
2024-03-02T13:57:30.163Z,58.14
2024-03-02T13:58:30.230Z,56.55
2024-03-02T13:59:30.291Z,58.63
2024-03-02T14:00:30.360Z,55.49
